aviador You're here:

CYBC Decoded Metar

BAIE COMEAU in QC, CANADA
Report Time2018-01-21 18:00:00
UTC Time2018-01-21 18:24:31
Flight Rules vfr VFR
Wind300° at 13 Gusting to 19 kt
W.Decomp.*RWY 28: 10.0 kt HW 8.4 kt RCW
W.Rank300° ranks 13
Current wind is above 300° avg. (7.2)
Visibility9999 m
Phenomena:N/A
Clouds:N/A
Expected CloudBase > 3,600 ft AGL from Temp-Dew spread
CeilingNone
Temp-12°C (ISA -27)
Dew Point-21°C (47% RH)
AAT-20.3°C
QNH1017 hPa
Density Alt-3,425 ft
Elevation72 ft
Report Wrong Elevation
Raw Report
CYBC 211800Z AUTO 30013G19KT 9SM CLR M12/M21 A3002 RMK SLP169=

Extra information for CYBC:More info

Metar Taf Metar & Taf Last 4 Metars F.Rules Stats Wind Profile Meteogram Temp Stats Airport Information Weather charts Add Link Nearby VenuesMetar ALERT Operation Metar Decoded Social comments